createdAt,value
2023-06-23T00:04:13.450Z,26.71
2023-06-23T00:08:29.881Z,26.78
2023-06-23T00:12:46.699Z,26.75
2023-06-23T00:17:04.156Z,26.79
2023-06-23T00:21:21.207Z,26.68
2023-06-23T00:25:38.029Z,26.71
2023-06-23T00:29:54.329Z,26.52
2023-06-23T00:34:10.701Z,26.57
2023-06-23T00:38:27.503Z,26.65
2023-06-23T00:42:54.380Z,26.60
2023-06-23T00:47:10.891Z,26.57
2023-06-23T00:51:27.788Z,26.69
2023-06-23T00:55:45.911Z,26.58
2023-06-23T01:00:02.317Z,26.70
2023-06-23T01:04:18.729Z,26.49
2023-06-23T01:08:43.581Z,26.49
2023-06-23T01:13:38.962Z,26.36
2023-06-23T01:18:21.316Z,26.52
2023-06-23T01:23:17.405Z,26.34
2023-06-23T01:27:48.388Z,26.24
2023-06-23T01:32:14.262Z,26.54
2023-06-23T01:36:56.356Z,26.26
2023-06-23T01:41:25.306Z,26.32
2023-06-23T01:45:42.481Z,26.48
2023-06-23T01:49:59.699Z,26.46
2023-06-23T01:54:16.542Z,26.44
2023-06-23T01:58:34.849Z,26.45
2023-06-23T02:02:53.396Z,26.44
2023-06-23T02:07:12.195Z,26.41
2023-06-23T02:11:29.188Z,26.26
2023-06-23T02:15:46.846Z,26.32
2023-06-23T02:20:12.256Z,26.22
2023-06-23T02:24:28.941Z,26.20
2023-06-23T02:28:51.306Z,26.11
2023-06-23T02:33:07.730Z,26.08
2023-06-23T02:37:25.663Z,26.00
2023-06-23T02:41:43.686Z,26.10
2023-06-23T02:46:02.623Z,25.93
2023-06-23T02:50:21.739Z,25.96
2023-06-23T02:54:43.484Z,26.02
2023-06-23T02:59:04.832Z,25.91
2023-06-23T03:03:21.414Z,25.84
2023-06-23T03:07:40.218Z,25.73
2023-06-23T03:11:56.644Z,25.71
2023-06-23T03:16:37.375Z,25.45
2023-06-23T03:20:54.317Z,25.49
2023-06-23T03:25:17.911Z,25.75
2023-06-23T03:29:38.211Z,25.84
2023-06-23T03:33:57.101Z,25.81
2023-06-23T03:38:18.442Z,25.73
2023-06-23T03:42:37.957Z,25.76
2023-06-23T03:46:58.969Z,25.70
2023-06-23T03:51:20.372Z,25.73
2023-06-23T03:55:38.775Z,25.72
2023-06-23T03:59:55.942Z,25.67
2023-06-23T04:04:13.530Z,25.54
2023-06-23T04:08:32.578Z,25.73
2023-06-23T04:12:49.742Z,25.68
2023-06-23T04:17:10.046Z,25.54
2023-06-23T04:21:26.324Z,25.66
2023-06-23T04:25:43.398Z,25.77
2023-06-23T04:30:00.802Z,25.85
2023-06-23T04:34:17.159Z,25.71
2023-06-23T04:38:36.148Z,25.92
2023-06-23T04:43:00.894Z,26.19
2023-06-23T04:47:20.578Z,26.25
2023-06-23T04:51:42.349Z,26.36
2023-06-23T04:56:07.155Z,26.32
2023-06-23T05:00:25.312Z,26.59
2023-06-23T05:04:42.835Z,26.53
2023-06-23T05:09:00.834Z,26.57
2023-06-23T05:13:18.674Z,26.52
2023-06-23T05:17:36.861Z,26.43
2023-06-23T05:21:55.556Z,26.84
2023-06-23T05:26:15.274Z,26.81
2023-06-23T05:30:33.079Z,26.81
2023-06-23T05:34:51.275Z,27.06
2023-06-23T05:39:08.748Z,27.08
2023-06-23T05:43:25.021Z,27.15
2023-06-23T05:47:41.358Z,27.35
2023-06-23T05:52:00.506Z,27.39
2023-06-23T05:56:23.039Z,27.42
2023-06-23T06:00:57.764Z,27.67
2023-06-23T06:05:18.865Z,27.80
2023-06-23T06:09:36.332Z,27.83
2023-06-23T06:13:52.977Z,28.10
2023-06-23T06:18:11.254Z,28.26
2023-06-23T06:22:29.230Z,28.09
2023-06-23T06:26:47.475Z,28.34
2023-06-23T06:31:04.651Z,28.57
2023-06-23T06:35:21.860Z,28.58
2023-06-23T06:39:42.708Z,28.68
2023-06-23T06:43:59.190Z,28.97
2023-06-23T06:48:16.191Z,29.18
2023-06-23T06:52:44.216Z,29.23
2023-06-23T06:57:01.650Z,29.39
2023-06-23T07:01:18.041Z,29.53
2023-06-23T07:05:34.489Z,29.45
2023-06-23T07:09:50.732Z,29.50
2023-06-23T07:14:07.260Z,29.50
2023-06-23T07:18:25.180Z,29.71
2023-06-23T07:22:41.398Z,30.02
2023-06-23T07:26:57.679Z,30.13
2023-06-23T07:31:16.057Z,30.45
2023-06-23T07:35:32.312Z,30.26
2023-06-23T07:39:48.614Z,30.58
2023-06-23T07:44:05.093Z,30.80
2023-06-23T07:48:21.711Z,31.05
2023-06-23T07:52:38.056Z,31.02
2023-06-23T07:56:54.397Z,31.02
2023-06-23T08:01:11.901Z,31.28
2023-06-23T08:05:28.460Z,31.37
2023-06-23T08:09:45.690Z,31.78
2023-06-23T08:14:02.213Z,31.88
2023-06-23T08:18:18.691Z,32.27
2023-06-23T08:22:35.093Z,32.21
2023-06-23T08:26:51.390Z,32.09
2023-06-23T08:31:07.930Z,32.31
2023-06-23T08:35:24.632Z,32.41
2023-06-23T08:39:41.240Z,32.40
2023-06-23T08:44:00.847Z,32.50
2023-06-23T08:48:18.383Z,32.45
2023-06-23T08:52:35.279Z,32.30
2023-06-23T08:56:51.825Z,32.34
2023-06-23T09:01:08.186Z,31.74
2023-06-23T09:05:24.995Z,32.05
2023-06-23T09:09:44.284Z,32.51
2023-06-23T09:14:04.181Z,32.86
2023-06-23T09:18:21.178Z,33.16
2023-06-23T09:22:38.115Z,33.19
2023-06-23T09:26:58.408Z,32.93
2023-06-23T09:31:16.909Z,33.03
2023-06-23T09:35:34.457Z,33.30
2023-06-23T09:39:56.080Z,33.24
2023-06-23T09:44:13.954Z,32.59
2023-06-23T09:48:30.584Z,32.66
2023-06-23T09:52:49.964Z,32.81
2023-06-23T09:57:16.889Z,32.50
2023-06-23T10:01:37.263Z,32.40
2023-06-23T10:05:57.361Z,32.31
2023-06-23T10:10:21.545Z,32.11
2023-06-23T10:14:40.860Z,31.96
2023-06-23T10:18:58.723Z,32.27
2023-06-23T10:23:15.141Z,32.51
2023-06-23T10:27:33.020Z,32.01
2023-06-23T10:31:51.383Z,32.15
2023-06-23T10:36:09.965Z,32.29
2023-06-23T10:40:27.305Z,32.08
2023-06-23T10:44:44.302Z,32.91
2023-06-23T10:49:00.899Z,33.17
2023-06-23T10:53:22.813Z,33.40
2023-06-23T10:57:39.157Z,32.98
2023-06-23T11:02:10.215Z,33.64
2023-06-23T11:06:36.032Z,33.28
2023-06-23T11:11:09.309Z,33.76
2023-06-23T11:15:28.663Z,33.47
2023-06-23T11:19:45.088Z,34.08
2023-06-23T11:24:26.937Z,33.38
2023-06-23T11:28:43.328Z,33.12
2023-06-23T11:33:35.650Z,33.20
2023-06-23T11:37:51.995Z,33.34
2023-06-23T11:42:08.601Z,33.00
2023-06-23T11:46:25.667Z,33.76
2023-06-23T11:50:45.023Z,32.99
2023-06-23T11:55:01.480Z,33.50
2023-06-23T11:59:19.410Z,33.72
2023-06-23T12:03:37.494Z,33.82
2023-06-23T12:07:54.187Z,33.72
2023-06-23T12:12:15.709Z,34.27
2023-06-23T12:16:39.622Z,34.63
2023-06-23T12:20:56.002Z,33.75
2023-06-23T12:25:12.589Z,33.43
2023-06-23T12:29:32.875Z,33.96
2023-06-23T12:33:51.403Z,33.68
2023-06-23T12:38:10.186Z,34.37
2023-06-23T12:42:27.078Z,34.62
2023-06-23T12:46:43.550Z,34.35
2023-06-23T12:51:00.046Z,34.23
2023-06-23T12:55:17.806Z,34.82
2023-06-23T12:59:34.377Z,34.69
2023-06-23T13:03:51.093Z,35.25
2023-06-23T13:08:08.291Z,35.46
2023-06-23T13:12:24.757Z,35.59
2023-06-23T13:16:41.434Z,35.68
2023-06-23T13:20:57.831Z,36.18
2023-06-23T13:25:15.337Z,35.02
2023-06-23T13:29:31.706Z,34.69
2023-06-23T13:33:48.062Z,34.17
2023-06-23T13:38:04.497Z,34.14
2023-06-23T13:42:20.890Z,34.64
2023-06-23T13:46:37.302Z,35.17
2023-06-23T13:50:53.762Z,35.17
2023-06-23T13:55:11.409Z,35.17
2023-06-23T13:59:27.769Z,35.09
2023-06-23T14:03:44.329Z,34.75
2023-06-23T14:08:00.688Z,33.93
2023-06-23T14:12:16.968Z,34.04
2023-06-23T14:16:33.292Z,33.90
2023-06-23T14:20:49.632Z,34.36
2023-06-23T14:25:06.435Z,34.23
2023-06-23T14:29:22.726Z,34.74
2023-06-23T14:33:39.087Z,34.83
2023-06-23T14:37:55.366Z,34.91
2023-06-23T14:42:11.903Z,34.55
2023-06-23T14:46:28.234Z,34.79
2023-06-23T14:50:44.608Z,34.69
2023-06-23T14:55:01.189Z,35.12
2023-06-23T14:59:17.527Z,35.10
2023-06-23T15:03:33.923Z,34.93
2023-06-23T15:07:55.207Z,34.34
2023-06-23T15:12:12.580Z,34.37
2023-06-23T15:16:28.931Z,34.12
2023-06-23T15:20:45.244Z,34.18
2023-06-23T15:25:01.636Z,33.53
2023-06-23T15:29:17.989Z,33.36
2023-06-23T15:33:36.046Z,32.87
2023-06-23T15:37:52.436Z,32.47
2023-06-23T15:42:11.760Z,32.53
2023-06-23T15:46:28.116Z,31.91
2023-06-23T15:50:44.504Z,31.51
2023-06-23T15:55:00.898Z,31.57
2023-06-23T15:59:18.522Z,31.43
2023-06-23T16:03:35.591Z,30.61
2023-06-23T16:07:52.550Z,30.52
2023-06-23T16:12:09.505Z,30.60
2023-06-23T16:16:25.963Z,29.71
2023-06-23T16:20:44.617Z,29.57
2023-06-23T16:25:02.890Z,30.04
2023-06-23T16:29:19.198Z,29.71
2023-06-23T16:33:36.180Z,29.33
2023-06-23T16:37:52.429Z,29.33
2023-06-23T16:42:08.992Z,29.46
2023-06-23T16:46:25.295Z,29.42
2023-06-23T16:50:41.657Z,29.76
2023-06-23T16:54:58.637Z,29.53
2023-06-23T16:59:15.040Z,29.45
2023-06-23T17:03:31.440Z,29.65
2023-06-23T17:07:47.832Z,29.39
2023-06-23T17:12:17.873Z,28.93
2023-06-23T17:16:35.787Z,28.33
2023-06-23T17:20:52.363Z,28.35
2023-06-23T17:25:10.734Z,27.98
2023-06-23T17:29:27.062Z,27.32
2023-06-23T17:33:44.062Z,26.97
2023-06-23T17:38:00.367Z,26.80
2023-06-23T17:42:17.117Z,26.85
2023-06-23T17:46:34.060Z,26.26
2023-06-23T17:50:50.868Z,25.71
2023-06-23T17:55:07.776Z,25.18
2023-06-23T17:59:24.070Z,25.34
2023-06-23T18:03:40.675Z,25.30
2023-06-23T18:07:57.223Z,25.22
2023-06-23T18:12:13.547Z,24.94
2023-06-23T18:16:30.034Z,24.67
2023-06-23T18:20:47.478Z,24.69
2023-06-23T18:25:04.492Z,24.58
2023-06-23T18:29:20.831Z,24.43
2023-06-23T18:33:37.317Z,24.50
2023-06-23T18:37:53.941Z,24.52
2023-06-23T18:42:10.467Z,24.08
2023-06-23T18:46:26.729Z,24.03
2023-06-23T18:50:43.086Z,24.19
2023-06-23T18:54:59.574Z,24.06
2023-06-23T18:59:15.972Z,24.05
2023-06-23T19:03:34.025Z,23.89
2023-06-23T19:07:52.510Z,23.56
2023-06-23T19:12:10.213Z,23.49
2023-06-23T19:16:27.436Z,23.52
2023-06-23T19:20:43.801Z,23.40
2023-06-23T19:25:00.217Z,23.55
2023-06-23T19:29:22.020Z,23.47
2023-06-23T19:33:38.855Z,23.54
2023-06-23T19:37:55.175Z,23.40
2023-06-23T19:42:11.633Z,23.21
2023-06-23T19:46:27.930Z,23.25
2023-06-23T19:50:44.295Z,23.03
2023-06-23T19:55:00.882Z,23.15
2023-06-23T19:59:17.290Z,22.91
2023-06-23T20:03:33.622Z,22.83
2023-06-23T20:07:52.057Z,22.76
2023-06-23T20:12:08.633Z,22.75
2023-06-23T20:16:29.081Z,22.31
2023-06-23T20:20:45.805Z,21.99
2023-06-23T20:25:04.547Z,21.89
2023-06-23T20:29:20.954Z,21.87
2023-06-23T20:33:37.278Z,21.69
2023-06-23T20:37:53.609Z,21.79
2023-06-23T20:42:09.960Z,22.04
2023-06-23T20:46:27.662Z,22.09
2023-06-23T20:50:44.399Z,22.13
2023-06-23T20:55:00.658Z,22.17
2023-06-23T20:59:18.459Z,21.92
2023-06-23T21:03:45.312Z,21.92
2023-06-23T21:08:03.034Z,21.17
2023-06-23T21:12:19.396Z,21.04
2023-06-23T21:16:35.726Z,21.29
2023-06-23T21:20:52.143Z,21.61
2023-06-23T21:25:08.696Z,21.60
2023-06-23T21:29:25.089Z,21.74
2023-06-23T21:33:41.410Z,21.34
2023-06-23T21:37:57.691Z,21.73
2023-06-23T21:42:14.171Z,21.67
2023-06-23T21:46:30.518Z,21.38
2023-06-23T21:50:48.165Z,21.60
2023-06-23T21:55:04.783Z,21.64
2023-06-23T21:59:21.677Z,21.60
2023-06-23T22:03:39.263Z,21.60
2023-06-23T22:07:55.636Z,21.45
2023-06-23T22:12:13.405Z,21.39
2023-06-23T22:16:29.878Z,21.38
2023-06-23T22:20:47.106Z,21.24
2023-06-23T22:25:04.109Z,21.20
2023-06-23T22:29:20.560Z,21.05
2023-06-23T22:33:37.122Z,20.96
2023-06-23T22:37:53.426Z,20.39
2023-06-23T22:42:09.779Z,20.17
2023-06-23T22:46:26.200Z,20.18
2023-06-23T22:50:42.666Z,20.14
2023-06-23T22:54:59.121Z,19.80
2023-06-23T22:59:15.715Z,19.92
2023-06-23T23:03:32.342Z,19.87
2023-06-23T23:07:48.820Z,20.23
2023-06-23T23:12:06.240Z,20.32
2023-06-23T23:16:28.372Z,20.21
2023-06-23T23:20:44.740Z,20.21
2023-06-23T23:25:01.936Z,20.37
2023-06-23T23:29:20.741Z,20.34
2023-06-23T23:33:40.661Z,20.31
2023-06-23T23:37:56.897Z,20.48
2023-06-23T23:42:13.362Z,20.08
2023-06-23T23:46:29.657Z,19.93
2023-06-23T23:50:46.028Z,19.79
2023-06-23T23:55:02.345Z,19.98
2023-06-23T23:59:18.633Z,20.28
